sensor_id;sensor_type;location;lat;lon;timestamp;P1;durP1;ratioP1;P2;durP2;ratioP2
10096;SDS011;5087;42.662;23.466;2022-11-25T00:00:44;1.70;;;1.70;;
10096;SDS011;5087;42.662;23.466;2022-11-25T00:03:15;1.80;;;1.80;;
10096;SDS011;5087;42.662;23.466;2022-11-25T00:05:45;2.00;;;2.00;;
10096;SDS011;5087;42.662;23.466;2022-11-25T00:08:12;2.00;;;2.00;;
10096;SDS011;5087;42.662;23.466;2022-11-25T00:10:39;1.60;;;1.60;;
10096;SDS011;5087;42.662;23.466;2022-11-25T00:13:06;1.83;;;1.83;;
10096;SDS011;5087;42.662;23.466;2022-11-25T00:15:34;1.90;;;1.90;;
10096;SDS011;5087;42.662;23.466;2022-11-25T00:18:01;1.70;;;1.70;;
10096;SDS011;5087;42.662;23.466;2022-11-25T00:20:29;1.80;;;1.80;;
10096;SDS011;5087;42.662;23.466;2022-11-25T00:22:57;1.63;;;1.63;;
10096;SDS011;5087;42.662;23.466;2022-11-25T00:25:24;4.00;;;3.70;;
10096;SDS011;5087;42.662;23.466;2022-11-25T00:27:52;2.30;;;2.17;;
10096;SDS011;5087;42.662;23.466;2022-11-25T00:30:19;1.77;;;1.77;;
10096;SDS011;5087;42.662;23.466;2022-11-25T00:32:46;1.60;;;1.60;;
10096;SDS011;5087;42.662;23.466;2022-11-25T00:35:13;1.80;;;1.80;;
10096;SDS011;5087;42.662;23.466;2022-11-25T00:37:40;1.80;;;1.80;;
10096;SDS011;5087;42.662;23.466;2022-11-25T00:40:10;1.70;;;1.70;;
10096;SDS011;5087;42.662;23.466;2022-11-25T00:42:37;2.00;;;2.00;;
10096;SDS011;5087;42.662;23.466;2022-11-25T00:45:22;2.10;;;2.10;;
10096;SDS011;5087;42.662;23.466;2022-11-25T00:47:50;1.60;;;1.60;;
10096;SDS011;5087;42.662;23.466;2022-11-25T00:50:19;1.70;;;1.70;;
10096;SDS011;5087;42.662;23.466;2022-11-25T00:52:46;1.60;;;1.60;;
10096;SDS011;5087;42.662;23.466;2022-11-25T00:55:14;1.50;;;1.50;;
10096;SDS011;5087;42.662;23.466;2022-11-25T00:57:42;1.70;;;1.70;;
10096;SDS011;5087;42.662;23.466;2022-11-25T01:00:10;1.73;;;1.73;;
10096;SDS011;5087;42.662;23.466;2022-11-25T01:02:40;1.80;;;1.80;;
10096;SDS011;5087;42.662;23.466;2022-11-25T01:05:07;1.80;;;1.80;;
10096;SDS011;5087;42.662;23.466;2022-11-25T01:07:35;2.00;;;2.00;;
10096;SDS011;5087;42.662;23.466;2022-11-25T01:10:03;1.90;;;1.90;;
10096;SDS011;5087;42.662;23.466;2022-11-25T01:15:01;1.73;;;1.73;;
10096;SDS011;5087;42.662;23.466;2022-11-25T01:17:28;1.80;;;1.80;;
10096;SDS011;5087;42.662;23.466;2022-11-25T01:19:55;1.70;;;1.70;;
10096;SDS011;5087;42.662;23.466;2022-11-25T01:22:23;1.80;;;1.80;;
10096;SDS011;5087;42.662;23.466;2022-11-25T01:24:50;1.80;;;1.80;;
10096;SDS011;5087;42.662;23.466;2022-11-25T01:27:20;2.07;;;2.07;;
10096;SDS011;5087;42.662;23.466;2022-11-25T01:29:49;1.50;;;1.50;;
10096;SDS011;5087;42.662;23.466;2022-11-25T01:34:54;2.20;;;2.13;;
10096;SDS011;5087;42.662;23.466;2022-11-25T01:37:22;1.70;;;1.70;;
10096;SDS011;5087;42.662;23.466;2022-11-25T01:39:49;1.50;;;1.50;;
10096;SDS011;5087;42.662;23.466;2022-11-25T01:42:18;1.90;;;1.90;;
10096;SDS011;5087;42.662;23.466;2022-11-25T01:47:50;1.50;;;1.50;;
10096;SDS011;5087;42.662;23.466;2022-11-25T01:50:22;1.60;;;1.60;;
10096;SDS011;5087;42.662;23.466;2022-11-25T01:52:52;1.70;;;1.70;;
10096;SDS011;5087;42.662;23.466;2022-11-25T01:55:22;1.70;;;1.70;;
10096;SDS011;5087;42.662;23.466;2022-11-25T01:57:53;2.40;;;2.20;;
10096;SDS011;5087;42.662;23.466;2022-11-25T02:00:23;1.70;;;1.70;;
10096;SDS011;5087;42.662;23.466;2022-11-25T02:02:54;1.80;;;1.80;;
10096;SDS011;5087;42.662;23.466;2022-11-25T02:05:26;2.00;;;2.00;;
10096;SDS011;5087;42.662;23.466;2022-11-25T02:08:00;1.80;;;1.80;;
10096;SDS011;5087;42.662;23.466;2022-11-25T02:10:35;1.80;;;1.80;;
10096;SDS011;5087;42.662;23.466;2022-11-25T02:13:02;1.77;;;1.77;;
10096;SDS011;5087;42.662;23.466;2022-11-25T02:15:30;1.80;;;1.80;;
10096;SDS011;5087;42.662;23.466;2022-11-25T02:18:04;1.80;;;1.80;;
10096;SDS011;5087;42.662;23.466;2022-11-25T02:20:33;1.90;;;1.90;;
10096;SDS011;5087;42.662;23.466;2022-11-25T02:23:07;1.80;;;1.80;;
10096;SDS011;5087;42.662;23.466;2022-11-25T02:25:43;1.73;;;1.73;;
10096;SDS011;5087;42.662;23.466;2022-11-25T02:28:16;1.90;;;1.90;;
10096;SDS011;5087;42.662;23.466;2022-11-25T02:30:46;2.23;;;2.23;;
10096;SDS011;5087;42.662;23.466;2022-11-25T02:33:14;1.90;;;1.90;;
10096;SDS011;5087;42.662;23.466;2022-11-25T02:35:42;2.00;;;2.00;;
10096;SDS011;5087;42.662;23.466;2022-11-25T02:38:15;2.07;;;2.07;;
10096;SDS011;5087;42.662;23.466;2022-11-25T02:40:46;2.00;;;2.00;;
10096;SDS011;5087;42.662;23.466;2022-11-25T02:43:17;2.00;;;2.00;;
10096;SDS011;5087;42.662;23.466;2022-11-25T02:45:49;2.10;;;2.10;;
10096;SDS011;5087;42.662;23.466;2022-11-25T02:48:24;2.20;;;2.20;;
10096;SDS011;5087;42.662;23.466;2022-11-25T02:50:53;2.00;;;2.00;;
10096;SDS011;5087;42.662;23.466;2022-11-25T02:53:24;1.90;;;1.90;;
10096;SDS011;5087;42.662;23.466;2022-11-25T02:55:53;1.90;;;1.90;;
10096;SDS011;5087;42.662;23.466;2022-11-25T02:58:21;2.00;;;2.00;;
10096;SDS011;5087;42.662;23.466;2022-11-25T03:00:48;2.10;;;2.10;;
10096;SDS011;5087;42.662;23.466;2022-11-25T03:03:16;3.07;;;2.97;;
10096;SDS011;5087;42.662;23.466;2022-11-25T03:05:45;2.00;;;2.00;;
10096;SDS011;5087;42.662;23.466;2022-11-25T03:08:13;2.10;;;2.10;;
10096;SDS011;5087;42.662;23.466;2022-11-25T03:10:41;2.00;;;2.00;;
10096;SDS011;5087;42.662;23.466;2022-11-25T03:13:10;2.20;;;2.20;;
10096;SDS011;5087;42.662;23.466;2022-11-25T03:15:38;2.33;;;2.33;;
10096;SDS011;5087;42.662;23.466;2022-11-25T03:18:06;2.00;;;2.00;;
10096;SDS011;5087;42.662;23.466;2022-11-25T03:20:35;2.10;;;2.10;;
10096;SDS011;5087;42.662;23.466;2022-11-25T03:23:03;1.90;;;1.90;;
10096;SDS011;5087;42.662;23.466;2022-11-25T03:25:31;2.10;;;2.10;;
10096;SDS011;5087;42.662;23.466;2022-11-25T03:27:58;1.90;;;1.90;;
10096;SDS011;5087;42.662;23.466;2022-11-25T03:30:27;1.90;;;1.90;;
10096;SDS011;5087;42.662;23.466;2022-11-25T03:32:57;1.90;;;1.90;;
10096;SDS011;5087;42.662;23.466;2022-11-25T03:35:29;1.80;;;1.80;;
10096;SDS011;5087;42.662;23.466;2022-11-25T03:37:56;1.80;;;1.80;;
10096;SDS011;5087;42.662;23.466;2022-11-25T03:40:24;1.80;;;1.80;;
10096;SDS011;5087;42.662;23.466;2022-11-25T03:42:51;2.53;;;2.43;;
10096;SDS011;5087;42.662;23.466;2022-11-25T03:45:18;1.70;;;1.70;;
10096;SDS011;5087;42.662;23.466;2022-11-25T03:47:48;1.70;;;1.70;;
10096;SDS011;5087;42.662;23.466;2022-11-25T03:50:16;1.70;;;1.70;;
10096;SDS011;5087;42.662;23.466;2022-11-25T03:52:44;1.70;;;1.70;;
10096;SDS011;5087;42.662;23.466;2022-11-25T03:55:13;1.60;;;1.60;;
10096;SDS011;5087;42.662;23.466;2022-11-25T03:57:44;1.60;;;1.60;;
10096;SDS011;5087;42.662;23.466;2022-11-25T04:00:11;1.60;;;1.60;;
10096;SDS011;5087;42.662;23.466;2022-11-25T04:03:12;1.60;;;1.60;;
10096;SDS011;5087;42.662;23.466;2022-11-25T04:05:40;1.30;;;1.30;;
10096;SDS011;5087;42.662;23.466;2022-11-25T04:08:08;1.20;;;1.20;;
10096;SDS011;5087;42.662;23.466;2022-11-25T04:10:36;1.30;;;1.30;;
10096;SDS011;5087;42.662;23.466;2022-11-25T04:13:05;1.50;;;1.50;;
10096;SDS011;5087;42.662;23.466;2022-11-25T04:15:42;1.20;;;1.20;;
10096;SDS011;5087;42.662;23.466;2022-11-25T04:18:10;1.00;;;1.00;;
10096;SDS011;5087;42.662;23.466;2022-11-25T04:20:39;1.00;;;1.00;;
10096;SDS011;5087;42.662;23.466;2022-11-25T04:23:06;0.90;;;0.90;;
10096;SDS011;5087;42.662;23.466;2022-11-25T04:25:41;0.90;;;0.90;;
10096;SDS011;5087;42.662;23.466;2022-11-25T04:28:20;0.97;;;0.97;;
10096;SDS011;5087;42.662;23.466;2022-11-25T04:30:48;0.90;;;0.90;;
10096;SDS011;5087;42.662;23.466;2022-11-25T04:33:16;1.00;;;1.00;;
10096;SDS011;5087;42.662;23.466;2022-11-25T04:35:53;0.90;;;0.90;;
10096;SDS011;5087;42.662;23.466;2022-11-25T04:38:20;0.90;;;0.90;;
10096;SDS011;5087;42.662;23.466;2022-11-25T04:40:48;0.80;;;0.80;;
10096;SDS011;5087;42.662;23.466;2022-11-25T04:43:18;0.90;;;0.90;;
10096;SDS011;5087;42.662;23.466;2022-11-25T04:45:56;0.90;;;0.90;;
10096;SDS011;5087;42.662;23.466;2022-11-25T04:48:29;0.90;;;0.90;;
10096;SDS011;5087;42.662;23.466;2022-11-25T04:50:58;0.90;;;0.90;;
10096;SDS011;5087;42.662;23.466;2022-11-25T04:53:25;0.80;;;0.80;;
10096;SDS011;5087;42.662;23.466;2022-11-25T04:55:53;0.90;;;0.90;;
10096;SDS011;5087;42.662;23.466;2022-11-25T04:58:20;0.90;;;0.90;;
10096;SDS011;5087;42.662;23.466;2022-11-25T05:01:07;0.80;;;0.80;;
10096;SDS011;5087;42.662;23.466;2022-11-25T05:03:39;0.90;;;0.90;;
10096;SDS011;5087;42.662;23.466;2022-11-25T05:06:09;0.80;;;0.80;;
10096;SDS011;5087;42.662;23.466;2022-11-25T05:08:36;0.90;;;0.90;;
10096;SDS011;5087;42.662;23.466;2022-11-25T05:11:04;0.90;;;0.90;;
10096;SDS011;5087;42.662;23.466;2022-11-25T05:13:31;0.80;;;0.80;;
10096;SDS011;5087;42.662;23.466;2022-11-25T05:15:58;0.80;;;0.80;;
10096;SDS011;5087;42.662;23.466;2022-11-25T05:18:27;0.80;;;0.80;;
10096;SDS011;5087;42.662;23.466;2022-11-25T05:20:54;0.80;;;0.80;;
10096;SDS011;5087;42.662;23.466;2022-11-25T05:23:28;0.80;;;0.80;;
10096;SDS011;5087;42.662;23.466;2022-11-25T05:26:07;1.00;;;1.00;;
10096;SDS011;5087;42.662;23.466;2022-11-25T05:28:39;1.00;;;1.00;;
10096;SDS011;5087;42.662;23.466;2022-11-25T05:31:08;0.90;;;0.90;;
10096;SDS011;5087;42.662;23.466;2022-11-25T05:33:36;1.00;;;1.00;;
10096;SDS011;5087;42.662;23.466;2022-11-25T05:36:05;1.10;;;1.10;;
10096;SDS011;5087;42.662;23.466;2022-11-25T05:38:46;1.13;;;1.13;;
10096;SDS011;5087;42.662;23.466;2022-11-25T05:41:21;1.13;;;1.13;;
10096;SDS011;5087;42.662;23.466;2022-11-25T05:43:54;1.17;;;1.17;;
10096;SDS011;5087;42.662;23.466;2022-11-25T05:46:21;1.20;;;1.20;;
10096;SDS011;5087;42.662;23.466;2022-11-25T05:48:52;1.30;;;1.30;;
10096;SDS011;5087;42.662;23.466;2022-11-25T05:51:21;1.40;;;1.40;;
10096;SDS011;5087;42.662;23.466;2022-11-25T05:53:51;1.43;;;1.43;;
10096;SDS011;5087;42.662;23.466;2022-11-25T05:56:20;1.50;;;1.50;;
10096;SDS011;5087;42.662;23.466;2022-11-25T05:58:54;1.50;;;1.50;;
10096;SDS011;5087;42.662;23.466;2022-11-25T06:01:29;1.50;;;1.50;;
10096;SDS011;5087;42.662;23.466;2022-11-25T06:03:58;1.60;;;1.60;;
10096;SDS011;5087;42.662;23.466;2022-11-25T06:06:26;1.70;;;1.70;;
10096;SDS011;5087;42.662;23.466;2022-11-25T06:08:55;1.70;;;1.70;;
10096;SDS011;5087;42.662;23.466;2022-11-25T06:11:23;1.70;;;1.70;;
10096;SDS011;5087;42.662;23.466;2022-11-25T06:13:51;1.90;;;1.90;;
10096;SDS011;5087;42.662;23.466;2022-11-25T06:16:20;1.80;;;1.80;;
10096;SDS011;5087;42.662;23.466;2022-11-25T06:19:03;1.90;;;1.90;;
10096;SDS011;5087;42.662;23.466;2022-11-25T06:21:31;1.90;;;1.90;;
10096;SDS011;5087;42.662;23.466;2022-11-25T06:24:00;1.90;;;1.90;;
10096;SDS011;5087;42.662;23.466;2022-11-25T06:26:29;2.20;;;2.20;;
10096;SDS011;5087;42.662;23.466;2022-11-25T06:28:56;2.13;;;2.13;;
10096;SDS011;5087;42.662;23.466;2022-11-25T06:31:24;2.50;;;2.47;;
10096;SDS011;5087;42.662;23.466;2022-11-25T06:34:24;2.10;;;2.10;;
10096;SDS011;5087;42.662;23.466;2022-11-25T06:36:51;2.60;;;2.60;;
10096;SDS011;5087;42.662;23.466;2022-11-25T06:39:20;2.10;;;2.10;;
10096;SDS011;5087;42.662;23.466;2022-11-25T06:41:47;2.00;;;2.00;;
10096;SDS011;5087;42.662;23.466;2022-11-25T06:44:14;2.40;;;2.40;;
10096;SDS011;5087;42.662;23.466;2022-11-25T06:46:41;2.10;;;2.10;;
10096;SDS011;5087;42.662;23.466;2022-11-25T06:49:09;2.30;;;2.30;;
10096;SDS011;5087;42.662;23.466;2022-11-25T06:51:36;2.10;;;2.10;;
10096;SDS011;5087;42.662;23.466;2022-11-25T06:54:03;2.30;;;2.30;;
10096;SDS011;5087;42.662;23.466;2022-11-25T06:56:33;2.27;;;2.27;;
10096;SDS011;5087;42.662;23.466;2022-11-25T06:59:00;2.10;;;2.10;;
10096;SDS011;5087;42.662;23.466;2022-11-25T07:01:28;2.10;;;2.10;;
10096;SDS011;5087;42.662;23.466;2022-11-25T07:03:58;2.40;;;2.40;;
10096;SDS011;5087;42.662;23.466;2022-11-25T07:06:27;2.27;;;2.27;;
10096;SDS011;5087;42.662;23.466;2022-11-25T07:08:57;2.20;;;2.20;;
10096;SDS011;5087;42.662;23.466;2022-11-25T07:11:24;2.10;;;2.10;;
10096;SDS011;5087;42.662;23.466;2022-11-25T07:13:56;2.30;;;2.30;;
10096;SDS011;5087;42.662;23.466;2022-11-25T07:16:25;2.40;;;2.40;;
10096;SDS011;5087;42.662;23.466;2022-11-25T07:18:53;2.20;;;2.20;;
10096;SDS011;5087;42.662;23.466;2022-11-25T07:21:22;2.40;;;2.40;;
10096;SDS011;5087;42.662;23.466;2022-11-25T07:23:50;2.37;;;2.37;;
10096;SDS011;5087;42.662;23.466;2022-11-25T07:26:19;2.40;;;2.40;;
10096;SDS011;5087;42.662;23.466;2022-11-25T07:28:48;2.40;;;2.40;;
10096;SDS011;5087;42.662;23.466;2022-11-25T07:31:23;2.50;;;2.50;;
10096;SDS011;5087;42.662;23.466;2022-11-25T07:33:52;2.53;;;2.53;;
10096;SDS011;5087;42.662;23.466;2022-11-25T07:36:21;2.40;;;2.40;;
10096;SDS011;5087;42.662;23.466;2022-11-25T07:38:49;2.20;;;2.20;;
10096;SDS011;5087;42.662;23.466;2022-11-25T07:41:17;2.50;;;2.50;;
10096;SDS011;5087;42.662;23.466;2022-11-25T07:43:49;2.20;;;2.20;;
10096;SDS011;5087;42.662;23.466;2022-11-25T07:46:22;2.40;;;2.40;;
10096;SDS011;5087;42.662;23.466;2022-11-25T07:48:56;2.20;;;2.20;;
10096;SDS011;5087;42.662;23.466;2022-11-25T07:51:25;2.37;;;2.37;;
10096;SDS011;5087;42.662;23.466;2022-11-25T07:53:54;3.23;;;3.13;;
10096;SDS011;5087;42.662;23.466;2022-11-25T07:56:24;2.40;;;2.40;;
10096;SDS011;5087;42.662;23.466;2022-11-25T07:58:52;2.43;;;2.43;;
10096;SDS011;5087;42.662;23.466;2022-11-25T08:01:22;2.50;;;2.50;;
10096;SDS011;5087;42.662;23.466;2022-11-25T08:03:49;2.50;;;2.50;;
10096;SDS011;5087;42.662;23.466;2022-11-25T08:06:17;2.50;;;2.50;;
10096;SDS011;5087;42.662;23.466;2022-11-25T08:08:46;2.60;;;2.60;;
10096;SDS011;5087;42.662;23.466;2022-11-25T08:11:20;2.73;;;2.73;;
10096;SDS011;5087;42.662;23.466;2022-11-25T08:13:49;2.60;;;2.60;;
10096;SDS011;5087;42.662;23.466;2022-11-25T08:16:20;2.50;;;2.50;;
10096;SDS011;5087;42.662;23.466;2022-11-25T08:18:50;2.50;;;2.50;;
10096;SDS011;5087;42.662;23.466;2022-11-25T08:21:18;2.77;;;2.77;;
10096;SDS011;5087;42.662;23.466;2022-11-25T08:23:45;2.90;;;2.90;;
10096;SDS011;5087;42.662;23.466;2022-11-25T08:26:14;3.00;;;3.00;;
10096;SDS011;5087;42.662;23.466;2022-11-25T08:28:43;2.80;;;2.80;;
10096;SDS011;5087;42.662;23.466;2022-11-25T08:31:12;2.80;;;2.80;;
10096;SDS011;5087;42.662;23.466;2022-11-25T08:33:42;3.03;;;3.03;;
10096;SDS011;5087;42.662;23.466;2022-11-25T09:14:49;3.40;;;3.40;;
10096;SDS011;5087;42.662;23.466;2022-11-25T09:17:16;3.20;;;3.20;;
10096;SDS011;5087;42.662;23.466;2022-11-25T09:19:44;3.80;;;3.70;;
10096;SDS011;5087;42.662;23.466;2022-11-25T09:22:11;3.50;;;3.50;;
10096;SDS011;5087;42.662;23.466;2022-11-25T09:24:38;3.97;;;3.87;;
10096;SDS011;5087;42.662;23.466;2022-11-25T09:27:07;3.93;;;3.83;;
10096;SDS011;5087;42.662;23.466;2022-11-25T09:29:35;3.67;;;3.67;;
10096;SDS011;5087;42.662;23.466;2022-11-25T09:32:03;3.50;;;3.50;;
10096;SDS011;5087;42.662;23.466;2022-11-25T09:34:31;3.30;;;3.23;;
10096;SDS011;5087;42.662;23.466;2022-11-25T09:36:58;3.40;;;3.40;;
10096;SDS011;5087;42.662;23.466;2022-11-25T09:39:25;3.80;;;3.70;;
10096;SDS011;5087;42.662;23.466;2022-11-25T09:42:01;3.03;;;3.03;;
10096;SDS011;5087;42.662;23.466;2022-11-25T09:45:15;3.60;;;3.60;;
10096;SDS011;5087;42.662;23.466;2022-11-25T09:50:57;3.77;;;3.70;;
10096;SDS011;5087;42.662;23.466;2022-11-25T09:53:38;3.60;;;3.60;;
10096;SDS011;5087;42.662;23.466;2022-11-25T09:56:11;3.40;;;3.40;;
10096;SDS011;5087;42.662;23.466;2022-11-25T09:58:47;3.57;;;3.57;;
10096;SDS011;5087;42.662;23.466;2022-11-25T10:01:18;3.30;;;3.30;;
10096;SDS011;5087;42.662;23.466;2022-11-25T10:03:51;3.30;;;3.30;;
10096;SDS011;5087;42.662;23.466;2022-11-25T10:06:22;3.80;;;3.67;;
10096;SDS011;5087;42.662;23.466;2022-11-25T10:08:54;3.20;;;3.20;;
10096;SDS011;5087;42.662;23.466;2022-11-25T10:11:27;3.10;;;3.10;;
10096;SDS011;5087;42.662;23.466;2022-11-25T10:14:06;3.30;;;3.30;;
10096;SDS011;5087;42.662;23.466;2022-11-25T10:16:45;3.40;;;3.40;;
10096;SDS011;5087;42.662;23.466;2022-11-25T10:19:20;3.50;;;3.50;;
10096;SDS011;5087;42.662;23.466;2022-11-25T10:22:00;3.13;;;3.13;;
10096;SDS011;5087;42.662;23.466;2022-11-25T10:24:48;3.50;;;3.50;;
10096;SDS011;5087;42.662;23.466;2022-11-25T10:27:21;3.40;;;3.40;;
10096;SDS011;5087;42.662;23.466;2022-11-25T10:29:55;3.40;;;3.40;;
10096;SDS011;5087;42.662;23.466;2022-11-25T10:32:32;3.40;;;3.40;;
10096;SDS011;5087;42.662;23.466;2022-11-25T10:35:10;3.40;;;3.40;;
10096;SDS011;5087;42.662;23.466;2022-11-25T10:37:45;3.83;;;3.83;;
10096;SDS011;5087;42.662;23.466;2022-11-25T10:40:19;3.60;;;3.60;;
10096;SDS011;5087;42.662;23.466;2022-11-25T10:42:47;3.50;;;3.50;;
10096;SDS011;5087;42.662;23.466;2022-11-25T10:45:14;3.40;;;3.40;;
10096;SDS011;5087;42.662;23.466;2022-11-25T10:50:35;3.80;;;3.80;;
10096;SDS011;5087;42.662;23.466;2022-11-25T10:53:13;3.70;;;3.70;;
10096;SDS011;5087;42.662;23.466;2022-11-25T10:55:55;3.73;;;3.73;;
10096;SDS011;5087;42.662;23.466;2022-11-25T10:58:30;4.13;;;4.03;;
10096;SDS011;5087;42.662;23.466;2022-11-25T11:01:06;3.40;;;3.40;;
10096;SDS011;5087;42.662;23.466;2022-11-25T11:03:41;3.40;;;3.40;;
10096;SDS011;5087;42.662;23.466;2022-11-25T11:06:28;3.47;;;3.47;;
10096;SDS011;5087;42.662;23.466;2022-11-25T11:09:00;3.27;;;3.27;;
10096;SDS011;5087;42.662;23.466;2022-11-25T11:11:27;3.40;;;3.40;;
10096;SDS011;5087;42.662;23.466;2022-11-25T11:14:11;3.40;;;3.40;;
10096;SDS011;5087;42.662;23.466;2022-11-25T11:16:50;3.20;;;3.20;;
10096;SDS011;5087;42.662;23.466;2022-11-25T11:19:21;3.93;;;3.83;;
10096;SDS011;5087;42.662;23.466;2022-11-25T11:22:14;3.30;;;3.30;;
10096;SDS011;5087;42.662;23.466;2022-11-25T11:24:43;4.07;;;3.97;;
10096;SDS011;5087;42.662;23.466;2022-11-25T11:27:14;3.30;;;3.30;;
10096;SDS011;5087;42.662;23.466;2022-11-25T11:29:47;3.33;;;3.33;;
10096;SDS011;5087;42.662;23.466;2022-11-25T11:32:19;3.37;;;3.37;;
10096;SDS011;5087;42.662;23.466;2022-11-25T11:34:52;3.00;;;3.00;;
10096;SDS011;5087;42.662;23.466;2022-11-25T11:40:22;2.90;;;2.90;;
10096;SDS011;5087;42.662;23.466;2022-11-25T11:43:00;3.10;;;3.10;;
10096;SDS011;5087;42.662;23.466;2022-11-25T11:45:36;3.40;;;3.40;;
10096;SDS011;5087;42.662;23.466;2022-11-25T11:48:20;3.27;;;3.27;;
10096;SDS011;5087;42.662;23.466;2022-11-25T11:50:52;4.70;;;4.60;;
10096;SDS011;5087;42.662;23.466;2022-11-25T11:53:32;4.17;;;3.83;;
10096;SDS011;5087;42.662;23.466;2022-11-25T11:56:08;3.20;;;3.20;;
10096;SDS011;5087;42.662;23.466;2022-11-25T11:58:48;3.10;;;3.10;;
10096;SDS011;5087;42.662;23.466;2022-11-25T12:01:34;3.30;;;3.30;;
10096;SDS011;5087;42.662;23.466;2022-11-25T12:04:11;4.07;;;3.93;;
10096;SDS011;5087;42.662;23.466;2022-11-25T12:06:47;3.53;;;3.53;;
10096;SDS011;5087;42.662;23.466;2022-11-25T12:09:23;3.10;;;3.10;;
10096;SDS011;5087;42.662;23.466;2022-11-25T12:11:57;3.40;;;3.40;;
10096;SDS011;5087;42.662;23.466;2022-11-25T12:14:38;4.13;;;3.90;;
10096;SDS011;5087;42.662;23.466;2022-11-25T12:17:10;3.27;;;3.27;;
10096;SDS011;5087;42.662;23.466;2022-11-25T12:19:48;3.20;;;3.20;;
10096;SDS011;5087;42.662;23.466;2022-11-25T12:22:22;3.80;;;3.70;;
10096;SDS011;5087;42.662;23.466;2022-11-25T12:24:58;3.20;;;3.20;;
10096;SDS011;5087;42.662;23.466;2022-11-25T12:27:32;3.00;;;3.00;;
10096;SDS011;5087;42.662;23.466;2022-11-25T12:30:03;3.10;;;3.10;;
10096;SDS011;5087;42.662;23.466;2022-11-25T12:35:29;2.90;;;2.90;;
10096;SDS011;5087;42.662;23.466;2022-11-25T12:38:04;3.17;;;3.17;;
10096;SDS011;5087;42.662;23.466;2022-11-25T12:40:41;3.67;;;3.57;;
10096;SDS011;5087;42.662;23.466;2022-11-25T12:43:21;3.33;;;3.33;;
10096;SDS011;5087;42.662;23.466;2022-11-25T12:46:03;3.30;;;3.30;;
10096;SDS011;5087;42.662;23.466;2022-11-25T12:48:38;15.87;;;6.00;;
10096;SDS011;5087;42.662;23.466;2022-11-25T12:51:09;3.10;;;3.10;;
10096;SDS011;5087;42.662;23.466;2022-11-25T12:53:57;3.70;;;3.60;;
10096;SDS011;5087;42.662;23.466;2022-11-25T12:56:39;3.30;;;3.30;;
10096;SDS011;5087;42.662;23.466;2022-11-25T12:59:26;4.33;;;4.13;;
10096;SDS011;5087;42.662;23.466;2022-11-25T13:02:19;3.40;;;3.40;;
10096;SDS011;5087;42.662;23.466;2022-11-25T13:05:15;4.00;;;3.90;;
10096;SDS011;5087;42.662;23.466;2022-11-25T13:07:54;3.40;;;3.40;;
10096;SDS011;5087;42.662;23.466;2022-11-25T13:10:31;3.30;;;3.30;;
10096;SDS011;5087;42.662;23.466;2022-11-25T13:13:13;3.27;;;3.27;;
10096;SDS011;5087;42.662;23.466;2022-11-25T13:15:50;3.20;;;3.20;;
10096;SDS011;5087;42.662;23.466;2022-11-25T13:18:20;3.30;;;3.30;;
10096;SDS011;5087;42.662;23.466;2022-11-25T13:20:50;3.20;;;3.20;;
10096;SDS011;5087;42.662;23.466;2022-11-25T13:23:22;3.50;;;3.50;;
10096;SDS011;5087;42.662;23.466;2022-11-25T13:25:52;3.60;;;3.60;;
10096;SDS011;5087;42.662;23.466;2022-11-25T13:28:41;3.40;;;3.40;;
10096;SDS011;5087;42.662;23.466;2022-11-25T13:31:21;3.67;;;3.67;;
10096;SDS011;5087;42.662;23.466;2022-11-25T13:33:59;3.20;;;3.20;;
10096;SDS011;5087;42.662;23.466;2022-11-25T13:36:42;3.40;;;3.40;;
10096;SDS011;5087;42.662;23.466;2022-11-25T13:39:15;3.27;;;3.27;;
10096;SDS011;5087;42.662;23.466;2022-11-25T13:41:44;3.50;;;3.50;;
10096;SDS011;5087;42.662;23.466;2022-11-25T13:44:20;3.40;;;3.40;;
10096;SDS011;5087;42.662;23.466;2022-11-25T13:46:50;3.50;;;3.50;;
10096;SDS011;5087;42.662;23.466;2022-11-25T13:52:25;3.40;;;3.40;;
10096;SDS011;5087;42.662;23.466;2022-11-25T13:54:58;3.30;;;3.30;;
10096;SDS011;5087;42.662;23.466;2022-11-25T13:57:28;3.50;;;3.50;;
10096;SDS011;5087;42.662;23.466;2022-11-25T14:00:00;3.40;;;3.40;;
10096;SDS011;5087;42.662;23.466;2022-11-25T14:02:40;3.40;;;3.40;;
10096;SDS011;5087;42.662;23.466;2022-11-25T14:08:34;3.40;;;3.40;;
10096;SDS011;5087;42.662;23.466;2022-11-25T14:11:27;3.73;;;3.60;;
10096;SDS011;5087;42.662;23.466;2022-11-25T14:14:10;3.80;;;3.70;;
10096;SDS011;5087;42.662;23.466;2022-11-25T14:16:57;3.80;;;3.70;;
10096;SDS011;5087;42.662;23.466;2022-11-25T14:19:57;3.57;;;3.57;;
10096;SDS011;5087;42.662;23.466;2022-11-25T14:22:39;3.40;;;3.40;;
10096;SDS011;5087;42.662;23.466;2022-11-25T14:25:26;3.43;;;3.43;;
10096;SDS011;5087;42.662;23.466;2022-11-25T14:27:56;3.50;;;3.50;;
10096;SDS011;5087;42.662;23.466;2022-11-25T14:30:33;3.40;;;3.40;;
10096;SDS011;5087;42.662;23.466;2022-11-25T14:33:11;3.50;;;3.50;;
10096;SDS011;5087;42.662;23.466;2022-11-25T14:35:45;3.40;;;3.40;;
10096;SDS011;5087;42.662;23.466;2022-11-25T14:38:20;3.20;;;3.20;;
10096;SDS011;5087;42.662;23.466;2022-11-25T14:40:53;3.00;;;3.00;;
10096;SDS011;5087;42.662;23.466;2022-11-25T14:43:25;3.53;;;3.50;;
10096;SDS011;5087;42.662;23.466;2022-11-25T14:46:07;3.33;;;3.30;;
10096;SDS011;5087;42.662;23.466;2022-11-25T14:48:38;3.20;;;3.20;;
10096;SDS011;5087;42.662;23.466;2022-11-25T14:51:06;3.10;;;3.10;;
10096;SDS011;5087;42.662;23.466;2022-11-25T14:53:37;3.03;;;3.03;;
10096;SDS011;5087;42.662;23.466;2022-11-25T14:56:06;3.23;;;3.23;;
10096;SDS011;5087;42.662;23.466;2022-11-25T14:58:38;3.10;;;3.10;;
10096;SDS011;5087;42.662;23.466;2022-11-25T15:01:08;2.90;;;2.90;;
10096;SDS011;5087;42.662;23.466;2022-11-25T15:03:47;3.70;;;3.60;;
10096;SDS011;5087;42.662;23.466;2022-11-25T15:06:15;2.80;;;2.80;;
10096;SDS011;5087;42.662;23.466;2022-11-25T16:01:43;2.40;;;2.40;;
10096;SDS011;5087;42.662;23.466;2022-11-25T16:04:15;2.60;;;2.60;;
10096;SDS011;5087;42.662;23.466;2022-11-25T16:06:53;2.50;;;2.50;;
10096;SDS011;5087;42.662;23.466;2022-11-25T16:09:24;3.90;;;3.80;;
10096;SDS011;5087;42.662;23.466;2022-11-25T16:12:03;2.57;;;2.57;;
10096;SDS011;5087;42.662;23.466;2022-11-25T16:14:33;3.17;;;3.17;;
10096;SDS011;5087;42.662;23.466;2022-11-25T16:17:03;2.40;;;2.40;;
10096;SDS011;5087;42.662;23.466;2022-11-25T16:19:38;2.50;;;2.50;;
10096;SDS011;5087;42.662;23.466;2022-11-25T16:22:08;2.30;;;2.30;;
10096;SDS011;5087;42.662;23.466;2022-11-25T16:24:40;2.50;;;2.50;;
10096;SDS011;5087;42.662;23.466;2022-11-25T16:27:16;2.67;;;2.67;;
10096;SDS011;5087;42.662;23.466;2022-11-25T16:29:52;2.30;;;2.30;;
10096;SDS011;5087;42.662;23.466;2022-11-25T16:32:24;2.50;;;2.50;;
10096;SDS011;5087;42.662;23.466;2022-11-25T16:34:53;2.60;;;2.60;;
10096;SDS011;5087;42.662;23.466;2022-11-25T16:37:22;2.70;;;2.70;;
10096;SDS011;5087;42.662;23.466;2022-11-25T16:39:49;2.73;;;2.73;;
10096;SDS011;5087;42.662;23.466;2022-11-25T16:42:17;3.07;;;3.07;;
10096;SDS011;5087;42.662;23.466;2022-11-25T16:44:46;2.73;;;2.73;;
10096;SDS011;5087;42.662;23.466;2022-11-25T16:47:19;2.50;;;2.50;;
10096;SDS011;5087;42.662;23.466;2022-11-25T16:49:50;2.57;;;2.57;;
10096;SDS011;5087;42.662;23.466;2022-11-25T16:52:17;2.70;;;2.70;;
10096;SDS011;5087;42.662;23.466;2022-11-25T16:54:44;2.70;;;2.70;;
10096;SDS011;5087;42.662;23.466;2022-11-25T16:57:14;2.83;;;2.83;;
10096;SDS011;5087;42.662;23.466;2022-11-25T16:59:43;2.73;;;2.73;;
10096;SDS011;5087;42.662;23.466;2022-11-25T17:02:13;2.80;;;2.80;;
10096;SDS011;5087;42.662;23.466;2022-11-25T17:04:44;2.83;;;2.83;;
10096;SDS011;5087;42.662;23.466;2022-11-25T17:07:16;2.60;;;2.60;;
10096;SDS011;5087;42.662;23.466;2022-11-25T17:09:45;2.60;;;2.60;;
10096;SDS011;5087;42.662;23.466;2022-11-25T17:12:13;2.60;;;2.60;;
10096;SDS011;5087;42.662;23.466;2022-11-25T17:14:43;2.70;;;2.70;;